createdAt,value
2023-04-19T00:01:39.657Z,8.27
2023-04-19T00:04:06.308Z,8.26
2023-04-19T00:06:32.786Z,8.24
2023-04-19T00:08:59.161Z,8.24
2023-04-19T00:11:25.547Z,8.19
2023-04-19T00:13:52.103Z,8.15
2023-04-19T00:16:18.474Z,8.08
2023-04-19T00:18:44.837Z,8.04
2023-04-19T00:21:11.656Z,8.02
2023-04-19T00:23:38.030Z,7.96
2023-04-19T00:26:04.663Z,7.94
2023-04-19T00:28:31.157Z,7.88
2023-04-19T00:30:57.794Z,7.84
2023-04-19T00:33:24.206Z,7.76
2023-04-19T00:35:50.624Z,7.69
2023-04-19T00:38:16.965Z,7.65
2023-04-19T00:40:43.350Z,7.60
2023-04-19T00:43:09.733Z,7.53
2023-04-19T00:45:36.916Z,7.46
2023-04-19T00:48:03.638Z,7.41
2023-04-19T00:50:30.509Z,7.42
2023-04-19T00:52:57.624Z,7.38
2023-04-19T00:55:24.637Z,7.34
2023-04-19T00:57:51.990Z,7.32
2023-04-19T01:00:19.863Z,7.29
2023-04-19T01:02:47.623Z,7.27
2023-04-19T01:05:14.441Z,7.26
2023-04-19T01:07:40.900Z,7.27
2023-04-19T01:10:07.552Z,7.30
2023-04-19T01:12:34.168Z,7.28
2023-04-19T01:15:01.536Z,7.34
2023-04-19T01:17:30.106Z,7.36
2023-04-19T01:20:00.992Z,7.38
2023-04-19T01:22:28.280Z,7.42
2023-04-19T01:24:54.690Z,7.40
2023-04-19T01:27:21.212Z,7.43
2023-04-19T01:29:47.551Z,7.49
2023-04-19T01:32:14.042Z,7.52
2023-04-19T01:34:40.451Z,7.57
2023-04-19T01:37:07.042Z,7.60
2023-04-19T01:39:33.470Z,7.64
2023-04-19T01:41:59.826Z,7.71
2023-04-19T01:44:27.044Z,7.73
2023-04-19T01:46:53.658Z,7.76
2023-04-19T01:49:20.146Z,7.80
2023-04-19T01:51:46.453Z,7.82
2023-04-19T01:54:13.215Z,7.86
2023-04-19T01:56:39.673Z,7.87
2023-04-19T01:59:06.097Z,7.90
2023-04-19T02:01:32.519Z,7.93
2023-04-19T02:03:59.282Z,7.94
2023-04-19T02:06:26.893Z,7.99
2023-04-19T02:08:53.376Z,8.04
2023-04-19T02:11:19.721Z,8.06
2023-04-19T02:13:46.118Z,8.09
2023-04-19T02:16:12.731Z,8.11
2023-04-19T02:18:40.309Z,8.14
2023-04-19T02:21:08.969Z,8.17
2023-04-19T02:23:35.557Z,8.18
2023-04-19T02:26:05.297Z,8.24
2023-04-19T02:28:32.102Z,8.28
2023-04-19T02:30:59.292Z,8.29
2023-04-19T02:33:27.009Z,8.31
2023-04-19T02:35:53.334Z,8.33
2023-04-19T02:38:19.697Z,8.35
2023-04-19T02:40:46.057Z,8.38
2023-04-19T02:43:12.438Z,8.39
2023-04-19T02:45:38.818Z,8.41
2023-04-19T02:48:05.754Z,8.42
2023-04-19T02:50:32.700Z,8.41
2023-04-19T02:52:59.018Z,8.45
2023-04-19T02:55:25.437Z,8.44
2023-04-19T02:57:52.001Z,8.47
2023-04-19T03:00:18.474Z,8.49
2023-04-19T03:02:44.979Z,8.51
2023-04-19T03:05:11.609Z,8.50
2023-04-19T03:07:38.037Z,8.51
2023-04-19T03:10:04.887Z,8.53
2023-04-19T03:12:31.208Z,8.53
2023-04-19T03:14:57.603Z,8.56
2023-04-19T03:17:24.039Z,8.56
2023-04-19T03:19:50.441Z,8.59
2023-04-19T03:22:16.833Z,8.61
2023-04-19T03:24:43.227Z,8.63
2023-04-19T03:27:09.674Z,8.62
2023-04-19T03:29:36.073Z,8.66
2023-04-19T03:32:02.401Z,8.67
2023-04-19T03:34:28.764Z,8.68
2023-04-19T03:36:55.336Z,8.71
2023-04-19T03:39:21.765Z,8.72
2023-04-19T03:41:48.081Z,8.72
2023-04-19T03:44:14.653Z,8.75
2023-04-19T03:46:41.292Z,8.73
2023-04-19T03:49:07.674Z,8.69
2023-04-19T03:51:34.129Z,8.65
2023-04-19T03:54:00.557Z,8.57
2023-04-19T03:56:26.940Z,8.49
2023-04-19T03:58:53.394Z,8.39
2023-04-19T04:01:21.184Z,8.35
2023-04-19T04:03:48.625Z,8.32
2023-04-19T04:06:15.511Z,8.30
2023-04-19T04:08:41.821Z,8.27
2023-04-19T04:11:08.197Z,8.23
2023-04-19T04:13:34.765Z,8.27
2023-04-19T04:16:01.239Z,8.24
2023-04-19T04:18:28.588Z,8.21
2023-04-19T04:20:55.467Z,8.21
2023-04-19T04:23:21.815Z,8.15
2023-04-19T04:25:48.216Z,8.08
2023-04-19T04:28:14.570Z,8.03
2023-04-19T04:30:41.823Z,8.02
2023-04-19T04:33:08.628Z,7.94
2023-04-19T04:35:35.143Z,7.90
2023-04-19T04:38:11.010Z,7.86
2023-04-19T04:40:44.109Z,7.85
2023-04-19T04:43:10.928Z,7.81
2023-04-19T04:45:37.795Z,7.76
2023-04-19T04:48:04.414Z,7.65
2023-04-19T04:50:30.798Z,7.65
2023-04-19T04:52:57.182Z,7.62
2023-04-19T04:55:23.647Z,7.59
2023-04-19T04:57:50.011Z,7.54
2023-04-19T05:00:17.583Z,7.54
2023-04-19T05:02:44.088Z,7.51
2023-04-19T05:05:11.580Z,7.54
2023-04-19T05:07:37.988Z,7.53
2023-04-19T05:10:04.696Z,7.53
2023-04-19T05:12:31.077Z,7.55
2023-04-19T05:14:57.525Z,7.57
2023-04-19T05:17:24.377Z,7.61
2023-04-19T05:19:51.044Z,7.59
2023-04-19T05:22:17.531Z,7.61
2023-04-19T05:24:43.854Z,7.57
2023-04-19T05:27:11.178Z,7.55
2023-04-19T05:29:37.539Z,7.54
2023-04-19T05:32:03.961Z,7.59
2023-04-19T05:34:30.575Z,7.61
2023-04-19T05:36:56.938Z,7.61
2023-04-19T05:39:23.396Z,7.66
2023-04-19T05:41:49.765Z,7.70
2023-04-19T05:44:16.436Z,7.83
2023-04-19T05:46:43.075Z,7.99
2023-04-19T05:49:09.454Z,8.18
2023-04-19T05:51:35.816Z,8.38
2023-04-19T05:54:02.319Z,8.57
2023-04-19T05:56:29.019Z,8.66
2023-04-19T05:59:00.737Z,8.70
2023-04-19T06:01:27.151Z,8.73
2023-04-19T06:03:54.379Z,8.77
2023-04-19T06:06:23.481Z,8.80
2023-04-19T06:08:52.550Z,8.91
2023-04-19T06:11:28.964Z,9.04
2023-04-19T06:14:01.400Z,9.10
2023-04-19T06:16:27.888Z,9.08
2023-04-19T06:18:54.238Z,9.25
2023-04-19T06:21:20.586Z,9.83
2023-04-19T06:23:46.892Z,10.49
2023-04-19T06:26:13.297Z,11.04
2023-04-19T06:28:39.663Z,11.33
2023-04-19T06:31:06.196Z,11.56
2023-04-19T06:33:32.633Z,11.77
2023-04-19T06:35:58.983Z,12.13
2023-04-19T06:38:25.331Z,12.34
2023-04-19T06:40:51.721Z,12.41
2023-04-19T06:43:18.104Z,12.52
2023-04-19T06:45:44.611Z,12.53
2023-04-19T06:48:10.976Z,12.32
2023-04-19T06:50:37.444Z,12.46
2023-04-19T06:53:05.076Z,12.98
2023-04-19T06:55:31.621Z,12.84
2023-04-19T06:57:58.431Z,13.00
2023-04-19T07:00:24.885Z,12.64
2023-04-19T07:02:52.194Z,12.80
2023-04-19T07:05:18.774Z,12.75
2023-04-19T07:07:45.131Z,12.94
2023-04-19T07:10:12.738Z,13.48
2023-04-19T07:12:39.115Z,13.45
2023-04-19T07:15:06.076Z,13.43
2023-04-19T07:17:35.054Z,13.41
2023-04-19T07:20:01.547Z,13.66
2023-04-19T07:22:27.876Z,13.99
2023-04-19T07:24:54.223Z,14.13
2023-04-19T07:27:20.702Z,14.22
2023-04-19T07:29:47.178Z,14.11
2023-04-19T07:32:16.176Z,13.88
2023-04-19T07:34:43.556Z,13.68
2023-04-19T07:37:10.461Z,13.64
2023-04-19T07:39:36.936Z,13.97
2023-04-19T07:42:03.392Z,14.39
2023-04-19T07:44:29.799Z,14.49
2023-04-19T07:46:56.300Z,14.89
2023-04-19T07:49:22.871Z,14.51
2023-04-19T07:51:49.413Z,14.57
2023-04-19T07:54:20.692Z,14.86
2023-04-19T07:56:47.257Z,14.83
2023-04-19T07:59:13.636Z,14.86
2023-04-19T08:01:40.260Z,14.46
2023-04-19T08:04:06.983Z,14.43
2023-04-19T08:06:33.597Z,14.41
2023-04-19T08:09:00.185Z,15.20
2023-04-19T08:11:26.673Z,15.17
2023-04-19T08:14:28.453Z,15.43
2023-04-19T08:19:08.820Z,15.82
2023-04-19T08:21:41.119Z,16.10
2023-04-19T08:24:08.579Z,17.08
2023-04-19T08:26:34.967Z,16.90
2023-04-19T08:29:01.640Z,16.62
2023-04-19T08:31:28.053Z,16.37
2023-04-19T08:33:54.484Z,16.86
2023-04-19T08:36:25.650Z,16.84
2023-04-19T08:39:06.531Z,16.90
2023-04-19T08:41:34.840Z,17.44
2023-04-19T08:44:03.064Z,17.32
2023-04-19T08:46:31.290Z,16.55
2023-04-19T08:48:59.112Z,16.79
2023-04-19T08:51:26.900Z,16.92
2023-04-19T08:53:56.482Z,16.64
2023-04-19T08:59:03.999Z,16.54
2023-04-19T09:01:37.123Z,16.92
2023-04-19T09:04:26.228Z,17.24
2023-04-19T09:06:53.036Z,17.37
2023-04-19T09:11:51.560Z,17.85
2023-04-19T09:14:20.953Z,17.13
2023-04-19T09:16:47.603Z,17.95
2023-04-19T09:19:23.176Z,17.54
2023-04-19T09:21:52.914Z,17.35
2023-04-19T09:24:19.297Z,18.67
2023-04-19T09:26:55.320Z,18.93
2023-04-19T09:29:21.662Z,18.74
2023-04-19T09:31:57.876Z,19.47
2023-04-19T09:34:24.483Z,18.20
2023-04-19T09:37:00.636Z,17.89
2023-04-19T09:39:32.592Z,17.07
2023-04-19T09:41:59.043Z,17.50
2023-04-19T09:46:55.632Z,19.50
2023-04-19T09:49:36.856Z,19.61
2023-04-19T09:52:10.165Z,18.44
2023-04-19T09:54:37.702Z,17.01
2023-04-19T09:57:04.554Z,17.50
2023-04-19T09:59:30.988Z,18.63
2023-04-19T10:01:59.704Z,18.66
2023-04-19T10:04:38.265Z,18.51
2023-04-19T10:09:52.466Z,18.25
2023-04-19T10:14:57.456Z,17.97
2023-04-19T10:17:24.746Z,19.34
2023-04-19T10:20:20.836Z,18.61
2023-04-19T10:22:47.782Z,18.02
2023-04-19T10:25:16.040Z,18.09
2023-04-19T10:27:48.939Z,18.81
2023-04-19T10:30:22.145Z,18.16
2023-04-19T10:32:56.173Z,18.67
2023-04-19T10:35:25.403Z,18.21
2023-04-19T10:38:08.091Z,17.78
2023-04-19T10:41:01.637Z,17.99
2023-04-19T10:43:30.341Z,18.33
2023-04-19T10:46:16.669Z,18.45
2023-04-19T10:48:57.911Z,18.51
2023-04-19T10:51:28.081Z,17.89
2023-04-19T10:53:59.445Z,18.08
2023-04-19T10:56:34.694Z,18.43
2023-04-19T10:59:01.229Z,18.17
2023-04-19T11:01:37.384Z,18.86
2023-04-19T11:04:04.226Z,19.12
2023-04-19T11:06:30.844Z,19.12
2023-04-19T11:08:57.513Z,19.13
2023-04-19T11:11:25.469Z,19.73
2023-04-19T11:13:55.253Z,19.45
2023-04-19T11:16:28.390Z,19.39
2023-04-19T11:19:04.536Z,19.19
2023-04-19T11:21:32.134Z,18.98
2023-04-19T11:24:09.324Z,18.45
2023-04-19T11:26:35.798Z,18.79
2023-04-19T11:29:02.496Z,18.84
2023-04-19T11:31:29.014Z,18.63
2023-04-19T11:33:58.528Z,18.86
2023-04-19T11:36:25.037Z,17.98
2023-04-19T11:38:52.857Z,18.87
2023-04-19T11:41:19.201Z,17.83
2023-04-19T11:43:46.827Z,17.63
2023-04-19T11:46:13.945Z,17.36
2023-04-19T11:48:52.097Z,17.45
2023-04-19T11:51:19.032Z,17.64
2023-04-19T11:53:46.087Z,17.45
2023-04-19T11:56:14.392Z,18.06
2023-04-19T11:58:48.673Z,17.77
2023-04-19T12:01:21.999Z,17.60
2023-04-19T12:03:53.946Z,17.61
2023-04-19T12:06:33.576Z,17.16
2023-04-19T12:09:00.137Z,17.56
2023-04-19T12:11:43.274Z,17.81
2023-04-19T12:14:11.191Z,17.00
2023-04-19T12:16:38.553Z,16.01
2023-04-19T12:19:15.633Z,16.00
2023-04-19T12:21:42.209Z,16.14
2023-04-19T12:24:09.087Z,16.15
2023-04-19T12:26:35.784Z,15.88
2023-04-19T12:29:03.605Z,15.86
2023-04-19T12:31:33.552Z,15.92
2023-04-19T12:34:00.047Z,16.11
2023-04-19T12:36:26.534Z,15.49
2023-04-19T12:38:52.905Z,15.36
2023-04-19T12:41:19.325Z,15.58
2023-04-19T12:43:45.692Z,15.52
2023-04-19T12:46:12.095Z,15.55
2023-04-19T12:48:38.556Z,15.32
2023-04-19T12:51:05.613Z,15.31
2023-04-19T12:53:32.026Z,15.04
2023-04-19T12:55:58.474Z,14.99
2023-04-19T12:58:25.042Z,15.15
2023-04-19T13:00:51.358Z,15.20
2023-04-19T13:03:17.960Z,15.16
2023-04-19T13:05:44.400Z,15.10
2023-04-19T13:08:10.799Z,14.95
2023-04-19T13:10:37.173Z,15.10
2023-04-19T13:13:03.504Z,15.27
2023-04-19T13:15:29.886Z,15.24
2023-04-19T13:17:56.937Z,15.13
2023-04-19T13:20:23.362Z,14.98
2023-04-19T13:22:49.726Z,15.16
2023-04-19T13:25:16.120Z,15.14
2023-04-19T13:27:42.456Z,15.36
2023-04-19T13:30:09.295Z,15.42
2023-04-19T13:32:35.633Z,15.28
2023-04-19T13:35:02.013Z,15.18
2023-04-19T13:37:28.535Z,15.04
2023-04-19T13:40:01.292Z,14.90
2023-04-19T13:42:37.367Z,14.95
2023-04-19T13:45:04.338Z,14.94
2023-04-19T13:47:31.045Z,15.11
2023-04-19T13:49:57.472Z,15.27
2023-04-19T13:52:23.885Z,15.25
2023-04-19T13:54:50.212Z,15.13
2023-04-19T13:57:16.570Z,15.29
2023-04-19T13:59:42.940Z,15.36
2023-04-19T14:02:09.396Z,15.38
2023-04-19T14:04:35.969Z,15.17
2023-04-19T14:07:02.322Z,15.15
2023-04-19T14:09:28.633Z,15.11
2023-04-19T14:11:55.021Z,15.15
2023-04-19T14:14:21.444Z,15.21
2023-04-19T14:16:47.845Z,15.21
2023-04-19T14:19:14.278Z,15.05
2023-04-19T14:21:41.065Z,15.08
2023-04-19T14:24:07.912Z,14.95
2023-04-19T14:26:34.322Z,15.00
2023-04-19T14:29:00.684Z,15.06
2023-04-19T14:31:27.141Z,15.12
2023-04-19T14:33:53.525Z,15.04
2023-04-19T14:36:19.873Z,15.04
2023-04-19T14:38:46.197Z,15.11
2023-04-19T14:41:12.555Z,14.97
2023-04-19T14:43:38.860Z,15.02
2023-04-19T14:46:05.408Z,15.06
2023-04-19T14:48:31.817Z,15.04
2023-04-19T14:50:58.148Z,14.89
2023-04-19T14:53:24.586Z,14.88
2023-04-19T14:55:51.051Z,14.96
2023-04-19T14:58:17.442Z,14.91
2023-04-19T15:00:44.336Z,15.08
2023-04-19T15:03:10.991Z,14.99
2023-04-19T15:05:37.576Z,14.86
2023-04-19T15:08:04.147Z,14.92
2023-04-19T15:10:30.518Z,14.90
2023-04-19T15:12:57.835Z,14.78
2023-04-19T15:15:24.226Z,14.76
2023-04-19T15:17:51.298Z,14.58
2023-04-19T15:20:17.840Z,14.51
2023-04-19T15:22:44.219Z,14.50
2023-04-19T15:25:10.628Z,14.51
2023-04-19T15:27:37.212Z,14.48
2023-04-19T15:30:04.694Z,14.47
2023-04-19T15:32:34.138Z,14.48
2023-04-19T15:35:00.706Z,14.53
2023-04-19T15:37:27.537Z,14.51
2023-04-19T15:39:53.905Z,14.42
2023-04-19T15:42:20.286Z,14.41
2023-04-19T15:44:46.606Z,14.41
2023-04-19T15:47:12.988Z,14.36
2023-04-19T15:49:40.542Z,14.32
2023-04-19T15:52:08.324Z,14.31
2023-04-19T15:54:37.549Z,14.39
2023-04-19T15:57:03.978Z,14.45
2023-04-19T15:59:31.393Z,14.36
2023-04-19T16:01:57.819Z,14.27
2023-04-19T16:04:24.383Z,14.21
2023-04-19T16:06:51.187Z,14.08
2023-04-19T16:09:17.719Z,14.07
2023-04-19T16:11:44.231Z,14.03
2023-04-19T16:14:10.662Z,14.00
2023-04-19T16:16:37.052Z,13.97
2023-04-19T16:19:03.748Z,13.96
2023-04-19T16:21:30.220Z,13.95
2023-04-19T16:23:56.679Z,13.88
2023-04-19T16:26:23.351Z,13.94
2023-04-19T16:28:49.805Z,13.96
2023-04-19T16:31:16.215Z,13.92
2023-04-19T16:33:42.556Z,13.80
2023-04-19T16:36:08.944Z,13.75
2023-04-19T16:38:35.314Z,13.75
2023-04-19T16:41:04.417Z,13.77
2023-04-19T16:43:30.781Z,13.69
2023-04-19T16:45:57.187Z,13.63
2023-04-19T16:48:23.608Z,13.61
2023-04-19T16:50:49.993Z,13.60
2023-04-19T16:53:16.349Z,13.57
2023-04-19T16:55:42.754Z,13.55
2023-04-19T16:58:09.077Z,13.53
2023-04-19T17:00:35.384Z,13.52
2023-04-19T17:03:01.963Z,13.40
2023-04-19T17:05:28.460Z,13.36
2023-04-19T17:07:56.674Z,13.39
2023-04-19T17:10:24.007Z,13.38
2023-04-19T17:12:50.424Z,13.33
2023-04-19T17:15:16.826Z,13.31
2023-04-19T17:17:43.303Z,13.26
2023-04-19T17:20:09.937Z,13.28
2023-04-19T17:22:36.286Z,13.21
2023-04-19T17:25:03.052Z,13.18
2023-04-19T17:27:29.488Z,13.12
2023-04-19T17:29:55.936Z,13.09
2023-04-19T17:32:22.290Z,13.03
2023-04-19T17:34:48.732Z,12.97
2023-04-19T17:37:15.238Z,12.93
2023-04-19T17:39:41.689Z,12.83
2023-04-19T17:42:08.090Z,12.82
2023-04-19T17:44:34.424Z,12.76
2023-04-19T17:47:00.963Z,12.65
2023-04-19T17:49:27.445Z,12.60
2023-04-19T17:51:55.279Z,12.53
2023-04-19T17:54:21.653Z,12.50
2023-04-19T17:56:48.099Z,12.41
2023-04-19T17:59:14.714Z,12.31
2023-04-19T18:01:41.346Z,12.21
2023-04-19T18:04:08.076Z,12.12
2023-04-19T18:06:34.514Z,12.08
2023-04-19T18:09:01.164Z,12.04
2023-04-19T18:11:28.710Z,12.02
2023-04-19T18:13:55.675Z,11.95
2023-04-19T18:16:22.239Z,11.92
2023-04-19T18:18:48.737Z,11.90
2023-04-19T18:21:15.389Z,11.80
2023-04-19T18:23:41.824Z,11.73
2023-04-19T18:26:08.192Z,11.70
2023-04-19T18:28:36.625Z,11.55
2023-04-19T18:31:04.768Z,11.47
2023-04-19T18:33:31.149Z,11.44
2023-04-19T18:35:57.947Z,11.43
2023-04-19T18:38:24.269Z,11.34
2023-04-19T18:40:50.809Z,11.43
2023-04-19T18:43:17.188Z,11.33
2023-04-19T18:45:43.623Z,11.29
2023-04-19T18:48:10.205Z,11.18
2023-04-19T18:50:37.553Z,11.12
2023-04-19T18:53:04.201Z,11.07
2023-04-19T18:55:31.080Z,10.98
2023-04-19T18:57:57.504Z,10.93
2023-04-19T19:00:25.067Z,10.87
2023-04-19T19:02:52.941Z,10.79
2023-04-19T19:05:19.751Z,10.66
2023-04-19T19:07:46.364Z,10.54
2023-04-19T19:12:42.862Z,10.31
2023-04-19T19:15:09.774Z,10.23
2023-04-19T19:17:36.318Z,10.08
2023-04-19T19:20:04.688Z,9.95
2023-04-19T19:22:31.158Z,9.97
2023-04-19T19:24:57.654Z,9.90
2023-04-19T19:27:24.368Z,9.84
2023-04-19T19:29:50.768Z,9.82
2023-04-19T19:32:17.163Z,9.78
2023-04-19T19:34:54.749Z,9.74
2023-04-19T19:37:26.340Z,9.63
2023-04-19T19:39:52.755Z,9.52
2023-04-19T19:42:21.711Z,9.46
2023-04-19T19:44:52.576Z,9.48
2023-04-19T19:47:18.955Z,9.41
2023-04-19T19:50:05.718Z,9.38
2023-04-19T19:52:32.130Z,9.51
2023-04-19T19:54:59.610Z,9.43
2023-04-19T19:59:56.772Z,9.60
2023-04-19T20:02:24.655Z,9.52
2023-04-19T20:04:51.491Z,9.48
2023-04-19T20:07:37.406Z,9.49
2023-04-19T20:10:11.885Z,9.60
2023-04-19T20:12:43.399Z,9.59
2023-04-19T20:15:13.371Z,9.63
2023-04-19T20:17:40.682Z,9.65
2023-04-19T20:20:08.854Z,9.51
2023-04-19T20:22:35.580Z,9.50
2023-04-19T20:25:01.947Z,9.44
2023-04-19T20:27:28.469Z,9.36
2023-04-19T20:29:54.810Z,9.35
2023-04-19T20:32:21.224Z,9.30
2023-04-19T20:34:47.892Z,9.17
2023-04-19T20:37:14.277Z,9.07
2023-04-19T20:39:40.607Z,9.11
2023-04-19T20:42:07.214Z,8.96
2023-04-19T20:44:33.994Z,8.92
2023-04-19T20:47:00.575Z,8.80
2023-04-19T20:49:26.948Z,8.81
2023-04-19T20:51:53.324Z,8.75
2023-04-19T20:54:19.958Z,8.68
2023-04-19T20:56:47.655Z,8.66
2023-04-19T20:59:14.045Z,8.69
2023-04-19T21:01:41.462Z,8.70
2023-04-19T21:04:08.636Z,8.76
2023-04-19T21:06:35.294Z,8.73
2023-04-19T21:09:01.745Z,8.65
2023-04-19T21:11:28.122Z,8.53
2023-04-19T21:13:54.462Z,8.53
2023-04-19T21:16:20.855Z,8.57
2023-04-19T21:18:47.208Z,8.41
2023-04-19T21:21:13.560Z,8.30
2023-04-19T21:23:40.113Z,8.28
2023-04-19T21:26:06.632Z,8.20
2023-04-19T21:28:36.052Z,8.29
2023-04-19T21:31:02.689Z,8.23
2023-04-19T21:33:29.143Z,8.13
2023-04-19T21:35:55.749Z,8.11
2023-04-19T21:38:22.060Z,8.07
2023-04-19T21:40:49.415Z,8.00
2023-04-19T21:43:17.205Z,7.94
2023-04-19T21:45:43.548Z,7.83
2023-04-19T21:48:09.937Z,7.85
2023-04-19T21:50:36.347Z,7.86
2023-04-19T21:53:02.674Z,7.78
2023-04-19T21:55:29.063Z,7.73
2023-04-19T21:57:55.393Z,7.79
2023-04-19T22:00:22.608Z,7.74
2023-04-19T22:02:49.075Z,7.71
2023-04-19T22:05:16.646Z,7.66
2023-04-19T22:07:42.988Z,7.71
2023-04-19T22:10:09.454Z,7.70
2023-04-19T22:12:40.612Z,7.65
2023-04-19T22:15:14.893Z,7.57
2023-04-19T22:17:42.266Z,7.48
2023-04-19T22:20:09.142Z,7.45
2023-04-19T22:22:35.641Z,7.37
2023-04-19T22:25:02.122Z,7.38
2023-04-19T22:27:28.496Z,7.36
2023-04-19T22:29:54.850Z,7.29
2023-04-19T22:32:21.372Z,7.22
2023-04-19T22:34:47.761Z,7.15
2023-04-19T22:37:14.180Z,7.14
2023-04-19T22:39:40.680Z,7.15
2023-04-19T22:42:07.037Z,7.09
2023-04-19T22:44:33.434Z,7.13
2023-04-19T22:47:00.052Z,7.04
2023-04-19T22:49:26.445Z,7.12
2023-04-19T22:51:54.664Z,7.06
2023-04-19T22:54:21.065Z,6.98
2023-04-19T22:56:47.477Z,6.94
2023-04-19T22:59:13.880Z,6.93
2023-04-19T23:01:40.553Z,6.93
2023-04-19T23:04:06.923Z,6.98
2023-04-19T23:06:33.765Z,6.97
2023-04-19T23:09:03.367Z,7.03
2023-04-19T23:11:29.814Z,7.03
2023-04-19T23:13:56.393Z,6.94
2023-04-19T23:16:24.957Z,6.88
2023-04-19T23:18:52.054Z,6.89
2023-04-19T23:21:18.499Z,6.78
2023-04-19T23:23:44.939Z,6.75
2023-04-19T23:26:11.392Z,6.62
2023-04-19T23:28:37.924Z,6.50
2023-04-19T23:31:04.520Z,6.35
2023-04-19T23:33:31.103Z,6.24
2023-04-19T23:35:57.443Z,6.14
2023-04-19T23:38:23.792Z,6.08
2023-04-19T23:40:50.332Z,6.01
2023-04-19T23:43:16.694Z,5.96
2023-04-19T23:45:43.093Z,5.90
2023-04-19T23:48:09.481Z,5.83
2023-04-19T23:50:35.914Z,5.86
2023-04-19T23:53:04.307Z,5.84
2023-04-19T23:55:30.710Z,5.77
2023-04-19T23:57:57.398Z,5.70
